createdAt,value
2019-03-12T00:00:33.011Z,2.6
2019-03-12T00:01:23.072Z,2.6
2019-03-12T00:02:13.115Z,2.6
2019-03-12T00:03:02.940Z,2.6
2019-03-12T00:03:53.238Z,2.6
2019-03-12T00:04:43.039Z,2.6
2019-03-12T00:05:33.092Z,2.6
2019-03-12T00:06:23.248Z,2.6
2019-03-12T00:07:13.502Z,2.6
2019-03-12T00:08:03.547Z,2.6
2019-03-12T00:08:53.054Z,2.5
2019-03-12T00:09:43.387Z,2.5
2019-03-12T00:10:33.459Z,2.5
2019-03-12T00:11:23.786Z,2.5
2019-03-12T00:12:13.854Z,2.5
2019-03-12T00:13:03.919Z,2.5
2019-03-12T00:13:53.977Z,2.4
2019-03-12T00:14:44.037Z,2.4
2019-03-12T00:15:34.099Z,2.4
2019-03-12T00:16:23.893Z,2.4
2019-03-12T00:17:13.926Z,2.4
2019-03-12T00:18:04.114Z,2.4
2019-03-12T00:18:53.785Z,2.4
2019-03-12T00:19:44.406Z,2.3
2019-03-12T00:20:34.177Z,2.3
2019-03-12T00:21:24.521Z,2.3
2019-03-12T00:22:14.305Z,2.3
2019-03-12T00:23:04.449Z,2.3
2019-03-12T00:23:54.424Z,2.3
2019-03-12T00:24:44.476Z,2.2
2019-03-12T00:25:34.881Z,2.2
2019-03-12T00:26:24.601Z,2.2
2019-03-12T00:27:14.698Z,2.2
2019-03-12T00:28:04.733Z,2.1
2019-03-12T00:28:54.776Z,2.1
2019-03-12T00:29:45.128Z,2.1
2019-03-12T00:30:35.014Z,2.1
2019-03-12T00:31:25.243Z,2.1
2019-03-12T00:32:15.048Z,2
2019-03-12T00:33:05.398Z,2
2019-03-12T00:33:55.171Z,2
2019-03-12T00:34:45.488Z,1.9
2019-03-12T00:35:35.273Z,1.9
2019-03-12T00:36:25.333Z,1.9
2019-03-12T00:37:15.392Z,1.9
2019-03-12T00:38:05.461Z,1.9
2019-03-12T00:38:55.789Z,1.9
2019-03-12T00:39:45.863Z,1.9
2019-03-12T00:40:35.636Z,1.8
2019-03-12T00:41:25.979Z,1.8
2019-03-12T00:42:15.761Z,1.8
2019-03-12T00:43:05.810Z,1.8
2019-03-12T00:43:55.875Z,1.8
2019-03-12T00:44:45.950Z,1.8
2019-03-12T00:45:36.277Z,1.8
2019-03-12T00:46:28.782Z,1.8
2019-03-12T00:47:15.845Z,1.8
2019-03-12T00:48:06.185Z,1.8
2019-03-12T00:48:56.513Z,1.7
2019-03-12T00:49:46.578Z,1.7
2019-03-12T00:50:36.643Z,1.7
2019-03-12T00:51:26.419Z,1.7
2019-03-12T00:52:16.759Z,1.7
2019-03-12T00:53:06.272Z,1.6
2019-03-12T00:53:56.631Z,1.6
2019-03-12T00:54:46.672Z,1.6
2019-03-12T00:55:36.735Z,1.6
2019-03-12T00:56:27.060Z,1.6
2019-03-12T00:57:16.564Z,1.6
2019-03-12T00:58:07.181Z,1.6
2019-03-12T00:58:56.410Z,1.6
2019-03-12T00:59:46.785Z,1.6
2019-03-12T01:00:37.107Z,1.5
2019-03-12T01:01:27.469Z,1.5
2019-03-12T01:02:17.492Z,1.5
2019-03-12T01:03:07.287Z,1.5
2019-03-12T01:03:57.609Z,1.4
2019-03-12T01:04:47.402Z,1.4
2019-03-12T01:05:37.474Z,1.4
2019-03-12T01:06:27.793Z,1.4
2019-03-12T01:07:17.862Z,1.4
2019-03-12T01:08:07.648Z,1.4
2019-03-12T01:08:57.968Z,1.4
2019-03-12T01:09:47.487Z,1.3
2019-03-12T01:10:38.096Z,1.3
2019-03-12T01:11:28.151Z,1.3
2019-03-12T01:12:18.211Z,1.3
2019-03-12T01:13:08.096Z,1.3
2019-03-12T01:13:58.346Z,1.3
2019-03-12T01:14:48.116Z,1.3
2019-03-12T01:15:38.470Z,1.2
2019-03-12T01:16:27.957Z,1.2
2019-03-12T01:17:18.298Z,1.2
2019-03-12T01:18:08.365Z,1.2
2019-03-12T01:18:58.783Z,1.1
2019-03-12T01:19:48.751Z,1.1
2019-03-12T01:20:38.548Z,1.1
2019-03-12T01:21:28.640Z,1.1
2019-03-12T01:22:18.748Z,1.1
2019-03-12T01:23:08.721Z,1.1
2019-03-12T01:23:58.802Z,1.1
2019-03-12T01:24:48.873Z,1.1
2019-03-12T01:25:39.298Z,1.1
2019-03-12T01:26:28.983Z,1.1
2019-03-12T01:27:19.314Z,1
2019-03-12T01:28:09.385Z,1
2019-03-12T01:28:59.427Z,1
2019-03-12T01:29:49.497Z,0.9
2019-03-12T01:30:39.313Z,1
2019-03-12T01:31:29.340Z,0.9
2019-03-12T01:32:19.678Z,0.9
2019-03-12T01:33:09.445Z,0.9
2019-03-12T01:33:59.252Z,0.9
2019-03-12T01:34:49.309Z,0.9
2019-03-12T01:35:39.661Z,0.9
2019-03-12T01:36:29.962Z,0.9
2019-03-12T01:37:20.034Z,0.9
2019-03-12T01:38:09.827Z,0.9
2019-03-12T01:38:59.603Z,0.9
2019-03-12T01:39:49.925Z,0.9
2019-03-12T01:40:40.272Z,0.9
2019-03-12T01:41:29.489Z,0.9
2019-03-12T01:42:20.455Z,0.9
2019-03-12T01:43:10.212Z,0.9
2019-03-12T01:44:00.514Z,0.9
2019-03-12T01:44:50.580Z,0.9
2019-03-12T01:45:40.357Z,0.9
2019-03-12T01:46:30.695Z,0.9
2019-03-12T01:47:20.779Z,0.9
2019-03-12T01:48:10.812Z,0.8
2019-03-12T01:49:00.326Z,0.9
2019-03-12T01:49:50.939Z,0.8
2019-03-12T01:50:41.017Z,0.8
2019-03-12T01:51:33.227Z,0.8
2019-03-12T01:52:21.120Z,0.8
2019-03-12T01:53:10.901Z,0.8
2019-03-12T01:54:00.977Z,0.8
2019-03-12T01:54:51.307Z,0.8
2019-03-12T01:55:41.096Z,0.8
2019-03-12T01:56:31.152Z,0.8
2019-03-12T01:57:21.478Z,0.8
2019-03-12T01:58:14.934Z,0.8
2019-03-12T01:59:01.063Z,0.8
2019-03-12T01:59:51.661Z,0.8
2019-03-12T02:00:41.456Z,0.8
2019-03-12T02:01:31.508Z,0.8
2019-03-12T02:02:21.845Z,0.8
2019-03-12T02:03:11.965Z,0.8
2019-03-12T02:04:01.733Z,0.8
2019-03-12T02:04:51.474Z,0.8
2019-03-12T02:05:41.806Z,0.8
2019-03-12T02:06:31.879Z,0.8
2019-03-12T02:07:22.222Z,0.8
2019-03-12T02:08:12.272Z,0.8
2019-03-12T02:09:02.391Z,0.8
2019-03-12T02:09:52.409Z,0.8
2019-03-12T02:10:42.264Z,0.8
2019-03-12T02:11:32.532Z,0.8
2019-03-12T02:12:22.308Z,0.8
2019-03-12T02:13:12.359Z,0.8
2019-03-12T02:14:02.703Z,0.8
2019-03-12T02:14:52.499Z,0.8
2019-03-12T02:15:42.545Z,0.7
2019-03-12T02:16:36.143Z,0.7
2019-03-12T02:17:22.710Z,0.8
2019-03-12T02:18:12.725Z,0.7
2019-03-12T02:19:02.792Z,0.7
2019-03-12T02:19:53.199Z,0.7
2019-03-12T02:20:43.177Z,0.7
2019-03-12T02:21:33.229Z,0.7
2019-03-12T02:22:23.013Z,0.6
2019-03-12T02:23:13.359Z,0.7
2019-03-12T02:24:03.192Z,0.6
2019-03-12T02:24:55.070Z,0.6
2019-03-12T02:25:43.535Z,0.7
2019-03-12T02:26:33.062Z,0.6
2019-03-12T02:27:23.382Z,0.6
2019-03-12T02:28:13.717Z,0.7
2019-03-12T02:29:03.789Z,0.6
2019-03-12T02:29:53.849Z,0.6
2019-03-12T02:30:43.754Z,0.6
2019-03-12T02:31:34.013Z,0.6
2019-03-12T02:32:23.755Z,0.6
2019-03-12T02:33:14.051Z,0.6
2019-03-12T02:34:04.198Z,0.6
2019-03-12T02:34:54.013Z,0.6
2019-03-12T02:35:44.147Z,0.6
2019-03-12T02:36:34.107Z,0.6
2019-03-12T02:37:24.124Z,0.6
2019-03-12T02:38:14.465Z,0.6
2019-03-12T02:39:04.525Z,0.6
2019-03-12T02:39:54.604Z,0.6
2019-03-12T02:40:44.672Z,0.6
2019-03-12T02:41:34.439Z,0.6
2019-03-12T02:42:24.775Z,0.6
2019-03-12T02:43:14.881Z,0.6
2019-03-12T02:44:04.650Z,0.6
2019-03-12T02:44:54.966Z,0.6
2019-03-12T02:45:45.067Z,0.6
2019-03-12T02:46:35.089Z,0.6
2019-03-12T02:47:25.172Z,0.6
2019-03-12T02:48:14.920Z,0.6
2019-03-12T02:49:10.346Z,0.6
2019-03-12T02:49:55.316Z,0.6
2019-03-12T02:50:45.119Z,0.5
2019-03-12T02:51:35.429Z,0.6
2019-03-12T02:52:25.563Z,0.6
2019-03-12T02:53:15.563Z,0.5
2019-03-12T02:54:05.488Z,0.5
2019-03-12T02:54:55.403Z,0.6
2019-03-12T02:55:45.729Z,0.5
2019-03-12T02:56:35.540Z,0.5
2019-03-12T02:57:25.873Z,0.5
2019-03-12T02:58:15.938Z,0.5
2019-03-12T02:59:06.002Z,0.5
2019-03-12T02:59:55.263Z,0.5
2019-03-12T03:00:45.568Z,0.5
2019-03-12T03:01:36.036Z,0.5
2019-03-12T03:02:25.826Z,0.5
2019-03-12T03:03:16.276Z,0.5
2019-03-12T03:04:06.360Z,0.5
2019-03-12T03:07:36.746Z,0.5
2019-03-12T03:08:27.069Z,0.6
2019-03-12T03:09:16.914Z,0.5
2019-03-12T03:10:07.200Z,0.5
2019-03-12T03:10:57.008Z,0.5
2019-03-12T03:11:50.461Z,0.5
2019-03-12T03:12:37.366Z,0.5
2019-03-12T03:13:26.899Z,0.5
2019-03-12T03:14:17.483Z,0.5
2019-03-12T03:15:07.257Z,0.5
2019-03-12T03:15:57.640Z,0.5
2019-03-12T03:16:47.394Z,0.5
2019-03-12T03:17:37.464Z,0.5
2019-03-12T03:18:27.524Z,0.5
2019-03-12T03:19:17.567Z,0.5
2019-03-12T03:20:07.931Z,0.5
2019-03-12T03:20:57.828Z,0.5
2019-03-12T03:21:47.742Z,0.5
2019-03-12T03:22:38.082Z,0.5
2019-03-12T03:23:27.914Z,0.6
2019-03-12T03:24:18.246Z,0.5
2019-03-12T03:25:08.277Z,0.5
2019-03-12T03:25:58.070Z,0.5
2019-03-12T03:26:48.402Z,0.6
2019-03-12T03:27:38.195Z,0.5
2019-03-12T03:28:28.498Z,0.5
2019-03-12T03:29:18.302Z,0.5
2019-03-12T03:30:08.634Z,0.5
2019-03-12T03:30:58.768Z,0.5
2019-03-12T03:31:48.527Z,0.5
2019-03-12T03:32:38.862Z,0.5
2019-03-12T03:33:29.079Z,0.5
2019-03-12T03:34:19.086Z,0.5
2019-03-12T03:35:09.017Z,0.5
2019-03-12T03:35:59.067Z,0.5
2019-03-12T03:36:49.127Z,0.5
2019-03-12T03:37:39.153Z,0.5
2019-03-12T03:38:29.236Z,0.5
2019-03-12T03:39:19.319Z,0.5
2019-03-12T03:40:09.127Z,0.5
2019-03-12T03:40:59.282Z,0.5
2019-03-12T03:41:49.219Z,0.6
2019-03-12T03:42:38.986Z,0.5
2019-03-12T03:43:29.615Z,0.5
2019-03-12T03:44:19.429Z,0.5
2019-03-12T03:45:09.726Z,0.5
2019-03-12T03:45:59.780Z,0.5
2019-03-12T03:46:49.569Z,0.5
2019-03-12T03:47:39.954Z,0.5
2019-03-12T03:48:29.741Z,0.5
2019-03-12T03:49:20.020Z,0.5
2019-03-12T03:50:09.838Z,0.5
2019-03-12T03:50:59.908Z,0.5
2019-03-12T03:51:50.222Z,0.5
2019-03-12T03:52:40.308Z,0.5
2019-03-12T03:53:30.410Z,0.5
2019-03-12T03:54:20.133Z,0.6
2019-03-12T03:55:10.485Z,0.5
2019-03-12T03:56:00.506Z,0.5
2019-03-12T03:56:50.590Z,0.6
2019-03-12T03:57:40.418Z,0.5
2019-03-12T03:58:30.462Z,0.5
2019-03-12T03:59:20.583Z,0.5
2019-03-12T04:00:10.805Z,0.6
2019-03-12T04:01:00.890Z,0.6
2019-03-12T04:01:50.920Z,0.6
2019-03-12T04:02:41.035Z,0.6
2019-03-12T04:03:31.104Z,0.6
2019-03-12T04:04:21.201Z,0.6
2019-03-12T04:05:11.163Z,0.6
2019-03-12T04:06:01.038Z,0.5
2019-03-12T04:06:51.325Z,0.6
2019-03-12T04:07:41.073Z,0.5
2019-03-12T04:08:31.155Z,0.6
2019-03-12T04:09:21.225Z,0.5
2019-03-12T04:10:11.549Z,0.5
2019-03-12T04:11:01.328Z,0.5
2019-03-12T04:11:51.377Z,0.6
2019-03-12T04:12:41.725Z,0.5
2019-03-12T04:13:31.811Z,0.6
2019-03-12T04:14:21.571Z,0.6
2019-03-12T04:15:11.902Z,0.6
2019-03-12T04:16:02.152Z,0.5
2019-03-12T04:16:52.079Z,0.6
2019-03-12T04:17:42.143Z,0.6
2019-03-12T04:18:31.896Z,0.6
2019-03-12T04:19:21.930Z,0.6
2019-03-12T04:20:12.283Z,0.6
2019-03-12T04:21:02.365Z,0.6
2019-03-12T04:21:52.417Z,0.6
2019-03-12T04:22:42.548Z,0.6
2019-03-12T04:23:32.607Z,0.6
2019-03-12T04:24:22.288Z,0.6
2019-03-12T04:25:12.507Z,0.6
2019-03-12T04:26:02.709Z,0.6
2019-03-12T04:26:52.512Z,0.6
2019-03-12T04:27:42.821Z,0.6
2019-03-12T04:28:32.896Z,0.6
2019-03-12T04:29:22.939Z,0.6
2019-03-12T04:30:12.458Z,0.6
2019-03-12T04:31:03.051Z,0.6
2019-03-12T04:31:53.091Z,0.6
2019-03-12T04:32:42.887Z,0.6
2019-03-12T04:33:32.935Z,0.6
2019-03-12T04:34:23.001Z,0.6
2019-03-12T04:35:13.079Z,0.6
2019-03-12T04:36:02.883Z,0.6
2019-03-12T04:36:53.286Z,0.6
2019-03-12T04:37:43.514Z,0.6
2019-03-12T04:38:33.303Z,0.6
2019-03-12T04:39:23.639Z,0.6
2019-03-12T04:40:13.233Z,0.6
2019-03-12T04:41:03.480Z,0.6
2019-03-12T04:41:53.817Z,0.6
2019-03-12T04:42:43.909Z,0.6
2019-03-12T04:43:34.252Z,0.6
2019-03-12T04:44:24.008Z,0.6
2019-03-12T04:45:14.167Z,0.6
2019-03-12T04:46:03.841Z,0.6
2019-03-12T04:46:53.631Z,0.6
2019-03-12T04:47:44.309Z,0.6
2019-03-12T04:48:34.288Z,0.6
2019-03-12T04:49:24.365Z,0.6
2019-03-12T04:50:14.155Z,0.6
2019-03-12T04:51:04.472Z,0.6
2019-03-12T04:51:54.531Z,0.6
2019-03-12T04:52:44.358Z,0.6
2019-03-12T04:53:37.917Z,0.6
2019-03-12T04:54:24.722Z,0.6
2019-03-12T04:55:14.519Z,0.6
2019-03-12T04:56:04.576Z,0.6
2019-03-12T04:56:54.908Z,0.6
2019-03-12T04:57:44.686Z,0.6
2019-03-12T04:58:34.743Z,0.6
2019-03-12T04:59:25.095Z,0.6
2019-03-12T05:00:14.607Z,0.5
2019-03-12T05:01:04.941Z,0.5
2019-03-12T05:01:54.980Z,0.6
2019-03-12T05:02:45.043Z,0.6
2019-03-12T05:03:35.105Z,0.5
2019-03-12T05:04:25.451Z,0.5
2019-03-12T05:05:15.509Z,0.5
2019-03-12T05:06:05.581Z,0.5
2019-03-12T05:06:55.350Z,0.5
2019-03-12T05:07:45.695Z,0.5
2019-03-12T05:08:35.751Z,0.5
2019-03-12T05:09:25.547Z,0.6
2019-03-12T05:10:15.897Z,0.5
2019-03-12T05:11:06.015Z,0.6
2019-03-12T05:11:56.032Z,0.5
2019-03-12T05:12:45.977Z,0.5
2019-03-12T05:13:35.638Z,0.5
2019-03-12T05:14:25.895Z,0.6
2019-03-12T05:15:15.995Z,0.5
2019-03-12T05:16:06.015Z,0.6
2019-03-12T05:16:55.844Z,0.5
2019-03-12T05:17:45.953Z,0.5
2019-03-12T05:18:36.182Z,0.5
2019-03-12T05:19:26.259Z,0.6
2019-03-12T05:20:16.598Z,0.5
2019-03-12T05:21:06.145Z,0.5
2019-03-12T05:21:56.439Z,0.5
2019-03-12T05:22:46.577Z,0.5
2019-03-12T05:23:36.564Z,0.5
2019-03-12T05:24:26.887Z,0.5
2019-03-12T05:25:16.965Z,0.5
2019-03-12T05:26:06.729Z,0.5
2019-03-12T05:26:57.084Z,0.5
2019-03-12T05:27:46.607Z,0.5
2019-03-12T05:28:36.920Z,0.5
2019-03-12T05:29:26.972Z,0.5
2019-03-12T05:30:17.321Z,0.5
2019-03-12T05:31:07.412Z,0.5
2019-03-12T05:31:57.421Z,0.4
2019-03-12T05:32:47.666Z,0.5
2019-03-12T05:33:37.274Z,0.5
2019-03-12T05:34:27.652Z,0.4
2019-03-12T05:35:17.441Z,0.5
2019-03-12T05:36:07.739Z,0.4
2019-03-12T05:36:57.801Z,0.5
2019-03-12T05:37:47.895Z,0.4
2019-03-12T05:38:37.956Z,0.5
2019-03-12T05:39:27.997Z,0.5
2019-03-12T05:40:18.036Z,0.4
2019-03-12T05:41:07.813Z,0.5
2019-03-12T05:41:58.149Z,0.5
2019-03-12T05:42:48.214Z,0.5
2019-03-12T05:43:37.991Z,0.5
2019-03-12T05:44:28.041Z,0.5
2019-03-12T05:45:18.160Z,0.5
2019-03-12T05:46:08.443Z,0.5
2019-03-12T05:46:58.503Z,0.5
2019-03-12T05:47:48.568Z,0.5
2019-03-12T05:48:38.368Z,0.5
2019-03-12T05:49:28.152Z,0.5
2019-03-12T05:50:18.481Z,0.5
2019-03-12T05:51:08.538Z,0.5
2019-03-12T05:51:58.396Z,0.5
2019-03-12T05:52:51.000Z,0.5
2019-03-12T05:53:38.993Z,0.4
2019-03-12T05:54:29.078Z,0.4
2019-03-12T05:55:19.115Z,0.5
2019-03-12T05:56:09.172Z,0.5
2019-03-12T05:56:58.952Z,0.5
2019-03-12T05:57:49.411Z,0.5
2019-03-12T05:58:38.808Z,0.5
2019-03-12T05:59:29.498Z,0.5
2019-03-12T06:00:19.197Z,0.5
2019-03-12T06:01:09.532Z,0.5
2019-03-12T06:01:59.051Z,0.5
2019-03-12T06:02:49.111Z,0.5
2019-03-12T06:03:39.463Z,0.5
2019-03-12T06:05:36.586Z,0.5
2019-03-12T06:06:26.423Z,0.5
2019-03-12T06:07:16.770Z,0.5
2019-03-12T06:08:06.817Z,0.5
2019-03-12T06:08:56.835Z,0.5
2019-03-12T06:09:47.157Z,0.5
2019-03-12T06:10:36.940Z,0.5
2019-03-12T06:11:27.276Z,0.5
2019-03-12T06:12:17.345Z,0.5
2019-03-12T06:13:07.409Z,0.6
2019-03-12T06:13:57.467Z,0.6
2019-03-12T06:14:47.520Z,0.6
2019-03-12T06:15:37.582Z,0.6
2019-03-12T06:16:27.642Z,0.6
2019-03-12T06:17:17.769Z,0.6
2019-03-12T06:18:07.762Z,0.6
2019-03-12T06:18:57.834Z,0.6
2019-03-12T06:19:47.594Z,0.6
2019-03-12T06:20:37.664Z,0.6
2019-03-12T06:21:28.007Z,0.6
2019-03-12T06:22:17.815Z,0.6
2019-03-12T06:23:07.564Z,0.6
2019-03-12T06:23:58.189Z,0.6
2019-03-12T06:24:48.236Z,0.6
2019-03-12T06:25:38.336Z,0.6
2019-03-12T06:26:28.351Z,0.6
2019-03-12T06:27:19.741Z,0.6
2019-03-12T06:28:08.191Z,0.6
2019-03-12T06:28:58.541Z,0.6
2019-03-12T06:29:48.049Z,0.6
2019-03-12T06:30:38.661Z,0.6
2019-03-12T06:31:28.427Z,0.6
2019-03-12T06:32:18.771Z,0.6
2019-03-12T06:33:08.835Z,0.7
2019-03-12T06:33:58.638Z,0.6
2019-03-12T06:34:48.963Z,0.6
2019-03-12T06:35:38.769Z,0.7
2019-03-12T06:36:29.072Z,0.7
2019-03-12T06:37:18.860Z,0.7
2019-03-12T06:38:09.191Z,0.7
2019-03-12T06:38:58.982Z,0.7
2019-03-12T06:39:49.329Z,0.7
2019-03-12T06:40:39.378Z,0.7
2019-03-12T06:41:29.166Z,0.7
2019-03-12T06:42:19.493Z,0.7
2019-03-12T06:43:09.571Z,0.8
2019-03-12T06:43:59.628Z,0.8
2019-03-12T06:44:49.683Z,0.8
2019-03-12T06:45:39.757Z,0.8
2019-03-12T06:46:29.528Z,0.8
2019-03-12T06:47:19.580Z,0.8
2019-03-12T06:48:09.385Z,0.8
2019-03-12T06:48:59.970Z,0.8
2019-03-12T06:49:50.042Z,0.8
2019-03-12T06:50:40.100Z,0.8
2019-03-12T06:51:29.916Z,0.8
2019-03-12T06:52:20.239Z,0.8
2019-03-12T06:53:09.998Z,0.8
2019-03-12T06:54:00.339Z,0.9
2019-03-12T06:54:50.397Z,0.8
2019-03-12T06:55:42.909Z,0.9
2019-03-12T06:56:30.269Z,0.9
2019-03-12T06:57:20.017Z,0.9
2019-03-12T06:58:10.627Z,0.9
2019-03-12T06:59:00.419Z,0.9
2019-03-12T06:59:50.755Z,0.9
2019-03-12T07:00:40.549Z,0.9
2019-03-12T07:01:30.601Z,1
2019-03-12T07:02:20.931Z,1
2019-03-12T07:03:10.989Z,1
2019-03-12T07:05:36.531Z,1.1
2019-03-12T07:06:26.596Z,1.1
2019-03-12T07:07:19.137Z,1.1
2019-03-12T07:08:08.461Z,1.1
2019-03-12T07:08:57.054Z,1.1
2019-03-12T07:09:47.293Z,1.2
2019-03-12T07:10:36.886Z,1.2
2019-03-12T07:11:26.938Z,1.3
2019-03-12T07:12:17.281Z,1.3
2019-03-12T07:13:07.395Z,1.3
2019-03-12T07:13:57.396Z,1.3
2019-03-12T07:14:47.458Z,1.4
2019-03-12T07:15:37.266Z,1.4
2019-03-12T07:16:27.028Z,1.4
2019-03-12T07:17:17.116Z,1.4
2019-03-12T07:18:07.696Z,1.5
2019-03-12T07:18:57.748Z,1.6
2019-03-12T07:19:47.533Z,1.6
2019-03-12T07:20:37.599Z,1.6
2019-03-12T07:21:27.653Z,1.7
2019-03-12T07:22:17.713Z,1.8
2019-03-12T07:23:08.060Z,1.8
2019-03-12T07:23:57.838Z,1.9
2019-03-12T07:24:47.905Z,2
2019-03-12T07:25:38.225Z,2.1
2019-03-12T07:26:28.288Z,2.2
2019-03-12T07:27:18.360Z,2.3
2019-03-12T07:28:08.417Z,2.4
2019-03-12T07:28:58.477Z,2.4
2019-03-12T07:29:48.528Z,2.6
2019-03-12T07:30:38.353Z,2.7
2019-03-12T07:31:29.715Z,2.8
2019-03-12T07:32:18.432Z,2.9
2019-03-12T07:33:08.495Z,3
2019-03-12T07:33:58.835Z,3.2
2019-03-12T07:34:48.864Z,3.3
2019-03-12T07:35:38.946Z,3.4
2019-03-12T07:36:28.740Z,3.5
2019-03-12T07:37:18.800Z,3.6
2019-03-12T07:38:09.129Z,3.8
2019-03-12T07:38:59.199Z,3.9
2019-03-12T07:39:48.984Z,3.9
2019-03-12T07:40:38.777Z,4.1
2019-03-12T07:41:34.564Z,4.1
2019-03-12T07:42:19.155Z,4.3
2019-03-12T07:43:08.932Z,4.4
2019-03-12T07:43:59.567Z,4.4
2019-03-12T07:44:49.619Z,4.6
2019-03-12T07:45:43.110Z,4.6
2019-03-12T07:46:29.559Z,4.8
2019-03-12T07:47:19.706Z,4.8
2019-03-12T07:48:23.962Z,4.9
2019-03-12T07:48:59.911Z,5
2019-03-12T07:49:49.982Z,5
2019-03-12T07:50:40.056Z,5.1
2019-03-12T07:51:29.528Z,5.1
2019-03-12T07:52:19.882Z,5.2
2019-03-12T07:53:09.929Z,5.3
2019-03-12T07:54:01.834Z,5.3
2019-03-12T07:54:50.334Z,5.4
2019-03-12T07:55:40.450Z,5.4
2019-03-12T07:56:30.483Z,5.4
2019-03-12T07:57:20.543Z,5.4
2019-03-12T07:58:10.330Z,5.4
2019-03-12T07:59:00.343Z,5.4
2019-03-12T07:59:50.689Z,5.4
2019-03-12T08:00:40.748Z,5.4
2019-03-12T08:01:30.819Z,5.5
2019-03-12T08:02:20.588Z,5.5
2019-03-12T08:03:10.677Z,5.4
2019-03-12T08:04:01.296Z,5.5
2019-03-12T08:04:50.773Z,5.5
2019-03-12T08:05:41.110Z,5.5
2019-03-12T08:06:30.888Z,5.5
2019-03-12T08:07:20.968Z,5.6
2019-03-12T08:08:11.283Z,5.5
2019-03-12T08:09:01.355Z,5.6
2019-03-12T08:09:50.840Z,5.6
2019-03-12T08:10:41.486Z,5.6
2019-03-12T08:11:31.528Z,5.6
2019-03-12T08:12:21.576Z,5.6
2019-03-12T08:13:11.658Z,5.6
2019-03-12T08:14:01.428Z,5.6
2019-03-12T08:14:51.785Z,5.6
2019-03-12T08:15:41.839Z,5.6
2019-03-12T08:16:31.883Z,5.5
2019-03-12T08:17:21.681Z,5.5
2019-03-12T08:18:12.045Z,5.5
2019-03-12T08:19:01.807Z,5.6
2019-03-12T08:19:51.851Z,5.6
2019-03-12T08:20:41.912Z,5.5
2019-03-12T08:21:32.266Z,5.5
2019-03-12T08:22:22.313Z,5.5
2019-03-12T08:23:12.095Z,5.5
2019-03-12T08:24:02.145Z,5.5
2019-03-12T08:24:52.207Z,5.5
2019-03-12T08:25:45.587Z,5.5
2019-03-12T08:26:32.622Z,5.5
2019-03-12T08:27:22.392Z,5.5
2019-03-12T08:28:12.450Z,5.5
2019-03-12T08:29:02.799Z,5.5
2019-03-12T08:29:52.862Z,5.5
2019-03-12T08:30:42.637Z,5.5
2019-03-12T08:31:32.981Z,5.5
2019-03-12T08:32:25.858Z,5.5
2019-03-12T08:33:12.580Z,5.5
2019-03-12T08:34:03.149Z,5.5
2019-03-12T08:34:53.246Z,5.5
2019-03-12T08:35:43.304Z,5.5
2019-03-12T08:36:32.807Z,5.5
2019-03-12T08:37:23.412Z,5.5
2019-03-12T08:38:13.470Z,5.5
2019-03-12T08:39:03.507Z,5.5
2019-03-12T08:39:53.395Z,5.5
2019-03-12T08:40:58.271Z,5.5
2019-03-12T08:41:33.401Z,5.5
2019-03-12T08:42:23.461Z,5.5
2019-03-12T08:43:13.713Z,5.5
2019-03-12T08:44:03.672Z,5.5
2019-03-12T08:44:53.952Z,5.5
2019-03-12T08:45:50.612Z,5.6
2019-03-12T08:46:34.089Z,5.6
2019-03-12T08:47:23.584Z,5.6
2019-03-12T08:48:14.815Z,5.6
2019-03-12T08:49:04.257Z,5.6
2019-03-12T08:49:54.210Z,5.6
2019-03-12T08:50:43.822Z,5.6
2019-03-12T08:51:34.149Z,5.6
2019-03-12T08:52:24.022Z,5.6
2019-03-12T08:53:14.278Z,5.6
2019-03-12T08:54:04.609Z,5.6
2019-03-12T08:54:56.619Z,5.6
2019-03-12T08:55:44.726Z,5.6
2019-03-12T08:56:34.821Z,5.6
2019-03-12T08:57:24.562Z,5.6
2019-03-12T08:58:14.901Z,5.6
2019-03-12T08:59:04.679Z,5.6
2019-03-12T08:59:55.013Z,5.6
2019-03-12T09:00:44.785Z,5.6
2019-03-12T09:01:35.123Z,5.6
2019-03-12T09:02:25.183Z,5.6
2019-03-12T09:03:15.237Z,5.6
2019-03-12T09:04:05.322Z,5.6
2019-03-12T09:04:55.367Z,5.6
2019-03-12T09:05:45.407Z,5.6
2019-03-12T09:06:35.200Z,5.6
2019-03-12T09:07:25.262Z,5.6
2019-03-12T09:08:15.606Z,5.6
2019-03-12T09:09:05.652Z,5.6
2019-03-12T09:09:55.712Z,5.7
2019-03-12T09:10:45.498Z,5.7
2019-03-12T09:11:35.906Z,5.7
2019-03-12T09:12:25.612Z,5.7
2019-03-12T09:13:15.954Z,5.8
2019-03-12T09:14:05.474Z,5.8
2019-03-12T09:14:56.072Z,5.8
2019-03-12T09:15:46.139Z,5.8
2019-03-12T09:16:35.909Z,5.9
2019-03-12T09:17:26.266Z,5.9
2019-03-12T09:18:16.321Z,5.9
2019-03-12T09:19:06.365Z,5.9
2019-03-12T09:19:56.226Z,5.9
2019-03-12T09:20:46.479Z,6
2019-03-12T09:21:36.541Z,6.1
2019-03-12T09:22:26.609Z,6.1
2019-03-12T09:23:16.736Z,6.1
2019-03-12T09:24:06.730Z,6.1
2019-03-12T09:24:56.868Z,6.2
2019-03-12T09:25:46.869Z,6.2
2019-03-12T09:26:36.339Z,6.3
2019-03-12T09:27:26.683Z,6.3
2019-03-12T09:28:17.044Z,6.3
2019-03-12T09:29:07.099Z,6.3
2019-03-12T09:29:56.899Z,6.3
2019-03-12T09:30:46.945Z,6.4
2019-03-12T09:31:37.261Z,6.4
2019-03-12T09:32:27.043Z,6.4
2019-03-12T09:33:17.376Z,6.4
2019-03-12T09:34:07.443Z,6.4
2019-03-12T09:34:57.488Z,6.5
2019-03-12T09:35:47.268Z,6.5
2019-03-12T09:36:36.782Z,6.5
2019-03-12T09:37:27.420Z,6.5
2019-03-12T09:38:17.551Z,6.5
2019-03-12T09:39:07.811Z,6.5
2019-03-12T09:39:57.858Z,6.5
2019-03-12T09:40:47.646Z,6.5
2019-03-12T09:41:37.795Z,6.5
2019-03-12T09:42:27.760Z,6.5
2019-03-12T09:43:17.543Z,6.5
2019-03-12T09:44:08.175Z,6.6
2019-03-12T09:44:58.213Z,6.5
2019-03-12T09:45:48.297Z,6.5
2019-03-12T09:46:38.342Z,6.5
2019-03-12T09:47:28.115Z,6.6
2019-03-12T09:48:18.689Z,6.5
2019-03-12T09:49:08.258Z,6.5
2019-03-12T09:49:58.573Z,6.5
2019-03-12T09:50:48.640Z,6.5
2019-03-12T09:51:38.425Z,6.5
2019-03-12T09:52:28.493Z,6.5
2019-03-12T09:53:18.546Z,6.5
2019-03-12T09:54:08.652Z,6.5
2019-03-12T09:54:58.942Z,6.5
2019-03-12T09:55:49.004Z,6.5
2019-03-12T09:56:38.505Z,6.5
2019-03-12T09:57:28.576Z,6.6
2019-03-12T09:58:18.897Z,6.6
2019-03-12T09:59:08.969Z,6.6
2019-03-12T09:59:59.019Z,6.7
2019-03-12T10:00:48.519Z,6.8
2019-03-12T10:01:39.671Z,6.9
2019-03-12T10:02:29.524Z,6.9
2019-03-12T10:03:19.246Z,7.1
2019-03-12T10:04:09.529Z,7.1
2019-03-12T10:06:36.379Z,7.4
2019-03-12T10:07:26.459Z,7.6
2019-03-12T10:08:16.781Z,7.8
2019-03-12T10:09:06.344Z,7.9
2019-03-12T10:09:56.914Z,8.1
2019-03-12T10:10:46.683Z,8.2
2019-03-12T10:11:37.034Z,8.3
2019-03-12T10:12:27.084Z,8.4
2019-03-12T10:13:16.579Z,8.6
2019-03-12T10:14:06.665Z,8.8
2019-03-12T10:14:56.983Z,8.9
2019-03-12T10:15:46.763Z,9
2019-03-12T10:16:37.106Z,9.2
2019-03-12T10:17:27.439Z,9.3
2019-03-12T10:18:17.496Z,9.5
2019-03-12T10:19:07.585Z,9.7
2019-03-12T10:19:57.341Z,9.9
2019-03-12T10:20:47.763Z,10.1
2019-03-12T10:21:37.471Z,10.3
2019-03-12T10:22:27.528Z,10.6
2019-03-12T10:23:17.856Z,10.8
2019-03-12T10:24:07.913Z,11.1
2019-03-12T10:24:57.702Z,11.4
2019-03-12T10:25:47.758Z,11.7
2019-03-12T10:26:38.085Z,12
2019-03-12T10:27:27.945Z,12.4
2019-03-12T10:28:18.205Z,12.7
2019-03-12T10:29:08.268Z,13
2019-03-12T10:29:58.070Z,13.3
2019-03-12T10:30:48.440Z,13.6
2019-03-12T10:31:37.907Z,13.9
2019-03-12T10:32:28.522Z,14.3
2019-03-12T10:33:18.602Z,14.5
2019-03-12T10:34:08.347Z,14.8
2019-03-12T10:34:58.421Z,15.2
2019-03-12T10:35:48.969Z,15.4
2019-03-12T10:36:38.822Z,15.6
2019-03-12T10:37:28.594Z,15.8
2019-03-12T10:38:18.649Z,16
2019-03-12T10:39:08.987Z,16.2
2019-03-12T10:39:58.817Z,16.3
2019-03-12T10:40:49.211Z,16.4
2019-03-12T10:41:38.920Z,16.5
2019-03-12T10:42:28.955Z,16.6
2019-03-12T10:43:19.300Z,16.6
2019-03-12T10:44:09.067Z,16.6
2019-03-12T10:44:59.410Z,16.7
2019-03-12T10:45:49.199Z,16.7
2019-03-12T10:46:39.538Z,16.8
2019-03-12T10:47:29.300Z,16.8
2019-03-12T10:48:19.665Z,16.8
2019-03-12T10:49:09.452Z,16.8
2019-03-12T10:49:59.499Z,16.8
2019-03-12T10:50:49.834Z,16.8
2019-03-12T10:51:39.894Z,16.8
2019-03-12T10:52:29.671Z,16.8
2019-03-12T10:53:19.758Z,16.8
2019-03-12T10:54:09.807Z,16.8
2019-03-12T10:55:15.450Z,16.8
2019-03-12T10:55:49.916Z,16.8
2019-03-12T10:56:40.257Z,16.7
2019-03-12T10:57:30.031Z,16.7
2019-03-12T10:58:20.368Z,16.7
2019-03-12T10:59:10.239Z,16.6
2019-03-12T11:00:00.401Z,16.6
2019-03-12T11:00:50.676Z,16.6
2019-03-12T11:01:40.611Z,16.5
2019-03-12T11:02:30.381Z,16.4
2019-03-12T11:03:20.731Z,16.4
2019-03-12T11:04:10.795Z,16.3
2019-03-12T11:05:00.956Z,16.3
2019-03-12T11:05:50.643Z,16.2
2019-03-12T11:06:40.453Z,16.1
2019-03-12T11:07:31.026Z,16.1
2019-03-12T11:08:21.114Z,16.1
2019-03-12T11:09:10.946Z,16
2019-03-12T11:10:01.216Z,15.9
2019-03-12T11:10:50.220Z,15.9
2019-03-12T11:11:41.048Z,15.8
2019-03-12T11:12:31.432Z,15.8
2019-03-12T11:13:21.188Z,15.8
2019-03-12T11:14:11.248Z,15.7
2019-03-12T11:15:01.818Z,15.6
2019-03-12T11:15:51.365Z,15.6
2019-03-12T11:16:41.125Z,15.5
2019-03-12T11:17:31.470Z,15.4
2019-03-12T11:18:20.786Z,15.4
2019-03-12T11:19:11.866Z,15.4
2019-03-12T11:20:01.933Z,15.3
2019-03-12T11:20:51.990Z,15.3
2019-03-12T11:21:42.035Z,15.2
2019-03-12T11:22:31.830Z,15.1
2019-03-12T11:23:22.193Z,15.1
2019-03-12T11:24:11.940Z,15
2019-03-12T11:25:02.312Z,14.9
2019-03-12T11:25:52.332Z,14.8
2019-03-12T11:26:42.119Z,14.8
2019-03-12T11:27:32.449Z,14.6
2019-03-12T11:28:22.243Z,14.6
2019-03-12T11:29:12.595Z,14.4
2019-03-12T11:30:02.665Z,14.4
2019-03-12T11:30:52.799Z,14.3
2019-03-12T11:31:42.217Z,14.2
2019-03-12T11:32:32.831Z,14.1
2019-03-12T11:33:22.687Z,14
2019-03-12T11:34:12.952Z,13.9
2019-03-12T11:35:02.790Z,13.8